sensor_id;sensor_type;location;lat;lon;timestamp;P1;durP1;ratioP1;P2;durP2;ratioP2
6145;SDS011;3104;50.348;7.620;2023-04-24T00:01:28;1.30;;;1.20;;
6145;SDS011;3104;50.348;7.620;2023-04-24T00:03:56;1.80;;;1.37;;
6145;SDS011;3104;50.348;7.620;2023-04-24T00:06:24;1.23;;;1.13;;
6145;SDS011;3104;50.348;7.620;2023-04-24T00:08:57;1.10;;;0.93;;
6145;SDS011;3104;50.348;7.620;2023-04-24T00:11:24;1.47;;;1.10;;
6145;SDS011;3104;50.348;7.620;2023-04-24T00:13:50;0.90;;;0.90;;
6145;SDS011;3104;50.348;7.620;2023-04-24T00:16:16;3.10;;;1.00;;
6145;SDS011;3104;50.348;7.620;2023-04-24T00:18:41;1.90;;;0.90;;
6145;SDS011;3104;50.348;7.620;2023-04-24T00:21:07;0.97;;;0.97;;
6145;SDS011;3104;50.348;7.620;2023-04-24T00:23:32;1.87;;;1.10;;
6145;SDS011;3104;50.348;7.620;2023-04-24T00:25:58;1.00;;;1.00;;
6145;SDS011;3104;50.348;7.620;2023-04-24T00:28:23;1.00;;;1.00;;
6145;SDS011;3104;50.348;7.620;2023-04-24T00:30:49;1.23;;;0.90;;
6145;SDS011;3104;50.348;7.620;2023-04-24T00:33:15;1.40;;;1.03;;
6145;SDS011;3104;50.348;7.620;2023-04-24T00:35:40;1.90;;;0.80;;
6145;SDS011;3104;50.348;7.620;2023-04-24T00:38:06;2.80;;;1.00;;
6145;SDS011;3104;50.348;7.620;2023-04-24T00:40:32;1.47;;;1.13;;
6145;SDS011;3104;50.348;7.620;2023-04-24T00:42:57;1.10;;;1.07;;
6145;SDS011;3104;50.348;7.620;2023-04-24T00:45:23;0.80;;;0.80;;
6145;SDS011;3104;50.348;7.620;2023-04-24T00:47:49;0.93;;;0.93;;
6145;SDS011;3104;50.348;7.620;2023-04-24T00:50:17;1.50;;;0.80;;
6145;SDS011;3104;50.348;7.620;2023-04-24T00:52:44;1.10;;;1.00;;
6145;SDS011;3104;50.348;7.620;2023-04-24T00:55:10;0.63;;;0.63;;
6145;SDS011;3104;50.348;7.620;2023-04-24T00:57:35;0.70;;;0.70;;
6145;SDS011;3104;50.348;7.620;2023-04-24T01:00:02;0.60;;;0.60;;
6145;SDS011;3104;50.348;7.620;2023-04-24T01:02:30;0.70;;;0.63;;
6145;SDS011;3104;50.348;7.620;2023-04-24T01:04:59;1.13;;;0.90;;
6145;SDS011;3104;50.348;7.620;2023-04-24T01:07:26;1.03;;;0.83;;
6145;SDS011;3104;50.348;7.620;2023-04-24T01:09:52;0.60;;;0.60;;
6145;SDS011;3104;50.348;7.620;2023-04-24T01:12:18;2.70;;;1.10;;
6145;SDS011;3104;50.348;7.620;2023-04-24T01:14:44;0.93;;;0.77;;
6145;SDS011;3104;50.348;7.620;2023-04-24T01:17:10;0.60;;;0.60;;
6145;SDS011;3104;50.348;7.620;2023-04-24T01:19:36;0.60;;;0.60;;
6145;SDS011;3104;50.348;7.620;2023-04-24T01:22:03;0.70;;;0.70;;
6145;SDS011;3104;50.348;7.620;2023-04-24T01:24:33;0.70;;;0.60;;
6145;SDS011;3104;50.348;7.620;2023-04-24T01:26:59;0.60;;;0.60;;
6145;SDS011;3104;50.348;7.620;2023-04-24T01:29:26;1.47;;;0.77;;
6145;SDS011;3104;50.348;7.620;2023-04-24T01:31:51;0.70;;;0.70;;
6145;SDS011;3104;50.348;7.620;2023-04-24T01:34:17;0.87;;;0.87;;
6145;SDS011;3104;50.348;7.620;2023-04-24T01:36:43;0.50;;;0.50;;
6145;SDS011;3104;50.348;7.620;2023-04-24T01:39:11;0.83;;;0.80;;
6145;SDS011;3104;50.348;7.620;2023-04-24T01:41:37;0.63;;;0.63;;
6145;SDS011;3104;50.348;7.620;2023-04-24T01:44:02;0.80;;;0.70;;
6145;SDS011;3104;50.348;7.620;2023-04-24T01:46:28;0.50;;;0.50;;
6145;SDS011;3104;50.348;7.620;2023-04-24T01:48:56;1.00;;;1.00;;
6145;SDS011;3104;50.348;7.620;2023-04-24T01:51:24;0.80;;;0.80;;
6145;SDS011;3104;50.348;7.620;2023-04-24T01:53:50;0.70;;;0.70;;
6145;SDS011;3104;50.348;7.620;2023-04-24T01:56:16;2.10;;;1.90;;
6145;SDS011;3104;50.348;7.620;2023-04-24T01:58:42;1.50;;;1.00;;
6145;SDS011;3104;50.348;7.620;2023-04-24T02:01:08;1.53;;;0.93;;
6145;SDS011;3104;50.348;7.620;2023-04-24T02:03:34;0.83;;;0.83;;
6145;SDS011;3104;50.348;7.620;2023-04-24T02:05:59;1.00;;;1.00;;
6145;SDS011;3104;50.348;7.620;2023-04-24T02:08:25;0.87;;;0.87;;
6145;SDS011;3104;50.348;7.620;2023-04-24T02:10:50;0.90;;;0.90;;
6145;SDS011;3104;50.348;7.620;2023-04-24T02:13:16;2.10;;;1.00;;
6145;SDS011;3104;50.348;7.620;2023-04-24T02:15:42;0.80;;;0.80;;
6145;SDS011;3104;50.348;7.620;2023-04-24T02:18:07;5.40;;;1.10;;
6145;SDS011;3104;50.348;7.620;2023-04-24T02:20:33;1.93;;;1.10;;
6145;SDS011;3104;50.348;7.620;2023-04-24T02:23:01;1.10;;;1.10;;
6145;SDS011;3104;50.348;7.620;2023-04-24T02:25:27;1.53;;;1.53;;
6145;SDS011;3104;50.348;7.620;2023-04-24T02:27:53;1.10;;;1.10;;
6145;SDS011;3104;50.348;7.620;2023-04-24T02:30:18;1.70;;;1.47;;
6145;SDS011;3104;50.348;7.620;2023-04-24T02:32:44;1.60;;;1.50;;
6145;SDS011;3104;50.348;7.620;2023-04-24T02:35:10;2.00;;;1.50;;
6145;SDS011;3104;50.348;7.620;2023-04-24T02:37:35;1.30;;;1.20;;
6145;SDS011;3104;50.348;7.620;2023-04-24T02:40:01;3.93;;;1.20;;
6145;SDS011;3104;50.348;7.620;2023-04-24T02:42:27;1.60;;;1.50;;
6145;SDS011;3104;50.348;7.620;2023-04-24T02:44:53;1.53;;;1.10;;
6145;SDS011;3104;50.348;7.620;2023-04-24T02:47:18;1.20;;;1.20;;
6145;SDS011;3104;50.348;7.620;2023-04-24T02:49:44;1.60;;;1.50;;
6145;SDS011;3104;50.348;7.620;2023-04-24T02:52:09;1.27;;;1.10;;
6145;SDS011;3104;50.348;7.620;2023-04-24T02:54:35;1.77;;;1.30;;
6145;SDS011;3104;50.348;7.620;2023-04-24T02:57:01;1.60;;;1.50;;
6145;SDS011;3104;50.348;7.620;2023-04-24T02:59:26;1.60;;;1.50;;
6145;SDS011;3104;50.348;7.620;2023-04-24T03:01:53;1.83;;;1.30;;
6145;SDS011;3104;50.348;7.620;2023-04-24T03:04:19;1.70;;;1.60;;
6145;SDS011;3104;50.348;7.620;2023-04-24T03:06:45;1.50;;;1.40;;
6145;SDS011;3104;50.348;7.620;2023-04-24T03:09:11;1.60;;;1.50;;
6145;SDS011;3104;50.348;7.620;2023-04-24T03:11:36;1.70;;;1.60;;
6145;SDS011;3104;50.348;7.620;2023-04-24T03:14:02;1.30;;;1.20;;
6145;SDS011;3104;50.348;7.620;2023-04-24T03:16:27;1.60;;;1.50;;
6145;SDS011;3104;50.348;7.620;2023-04-24T03:18:53;1.57;;;1.47;;
6145;SDS011;3104;50.348;7.620;2023-04-24T03:21:18;1.33;;;1.23;;
6145;SDS011;3104;50.348;7.620;2023-04-24T03:23:44;2.33;;;1.80;;
6145;SDS011;3104;50.348;7.620;2023-04-24T03:26:10;2.60;;;2.17;;
6145;SDS011;3104;50.348;7.620;2023-04-24T03:28:35;1.97;;;1.87;;
6145;SDS011;3104;50.348;7.620;2023-04-24T03:31:02;2.30;;;2.20;;
6145;SDS011;3104;50.348;7.620;2023-04-24T03:33:28;1.77;;;1.67;;
6145;SDS011;3104;50.348;7.620;2023-04-24T03:35:53;1.90;;;1.80;;
6145;SDS011;3104;50.348;7.620;2023-04-24T03:38:19;2.23;;;2.03;;
6145;SDS011;3104;50.348;7.620;2023-04-24T03:40:45;3.60;;;2.00;;
6145;SDS011;3104;50.348;7.620;2023-04-24T03:43:10;1.83;;;1.70;;
6145;SDS011;3104;50.348;7.620;2023-04-24T03:45:36;2.73;;;2.50;;
6145;SDS011;3104;50.348;7.620;2023-04-24T03:48:01;2.43;;;2.20;;
6145;SDS011;3104;50.348;7.620;2023-04-24T03:50:27;2.10;;;1.90;;
6145;SDS011;3104;50.348;7.620;2023-04-24T03:52:54;3.30;;;2.83;;
6145;SDS011;3104;50.348;7.620;2023-04-24T03:55:19;2.67;;;2.47;;
6145;SDS011;3104;50.348;7.620;2023-04-24T03:57:45;2.80;;;2.30;;
6145;SDS011;3104;50.348;7.620;2023-04-24T04:00:10;3.93;;;2.30;;
6145;SDS011;3104;50.348;7.620;2023-04-24T04:02:36;3.73;;;2.30;;
6145;SDS011;3104;50.348;7.620;2023-04-24T04:05:02;3.10;;;2.50;;
6145;SDS011;3104;50.348;7.620;2023-04-24T04:07:28;3.97;;;2.90;;
6145;SDS011;3104;50.348;7.620;2023-04-24T04:09:54;3.33;;;2.50;;
6145;SDS011;3104;50.348;7.620;2023-04-24T04:12:20;2.80;;;2.57;;
6145;SDS011;3104;50.348;7.620;2023-04-24T04:14:46;3.23;;;2.80;;
6145;SDS011;3104;50.348;7.620;2023-04-24T04:17:11;4.00;;;2.93;;
6145;SDS011;3104;50.348;7.620;2023-04-24T04:19:37;3.07;;;2.87;;
6145;SDS011;3104;50.348;7.620;2023-04-24T04:22:02;2.87;;;2.43;;
6145;SDS011;3104;50.348;7.620;2023-04-24T04:24:28;2.57;;;2.37;;
6145;SDS011;3104;50.348;7.620;2023-04-24T04:26:54;2.53;;;2.33;;
6145;SDS011;3104;50.348;7.620;2023-04-24T04:29:21;2.87;;;2.70;;
6145;SDS011;3104;50.348;7.620;2023-04-24T04:31:47;2.37;;;2.20;;
6145;SDS011;3104;50.348;7.620;2023-04-24T04:34:13;2.87;;;2.60;;
6145;SDS011;3104;50.348;7.620;2023-04-24T04:36:39;2.80;;;2.60;;
6145;SDS011;3104;50.348;7.620;2023-04-24T04:39:05;2.90;;;2.70;;
6145;SDS011;3104;50.348;7.620;2023-04-24T04:41:31;2.63;;;2.43;;
6145;SDS011;3104;50.348;7.620;2023-04-24T04:44:00;3.30;;;3.03;;
6145;SDS011;3104;50.348;7.620;2023-04-24T04:46:26;4.03;;;3.63;;
6145;SDS011;3104;50.348;7.620;2023-04-24T04:48:52;3.10;;;2.90;;
6145;SDS011;3104;50.348;7.620;2023-04-24T04:51:18;3.33;;;2.33;;
6145;SDS011;3104;50.348;7.620;2023-04-24T04:53:44;4.73;;;3.63;;
6145;SDS011;3104;50.348;7.620;2023-04-24T04:56:10;4.33;;;3.13;;
6145;SDS011;3104;50.348;7.620;2023-04-24T04:58:35;3.20;;;2.93;;
6145;SDS011;3104;50.348;7.620;2023-04-24T05:01:01;3.63;;;2.67;;
6145;SDS011;3104;50.348;7.620;2023-04-24T05:03:27;4.10;;;3.80;;
6145;SDS011;3104;50.348;7.620;2023-04-24T05:05:53;5.20;;;3.50;;
6145;SDS011;3104;50.348;7.620;2023-04-24T05:08:18;4.10;;;3.73;;
6145;SDS011;3104;50.348;7.620;2023-04-24T05:10:44;4.97;;;4.57;;
6145;SDS011;3104;50.348;7.620;2023-04-24T05:13:09;3.77;;;3.40;;
6145;SDS011;3104;50.348;7.620;2023-04-24T05:15:35;3.67;;;3.37;;
6145;SDS011;3104;50.348;7.620;2023-04-24T05:18:00;3.60;;;3.30;;
6145;SDS011;3104;50.348;7.620;2023-04-24T05:20:26;3.97;;;3.47;;
6145;SDS011;3104;50.348;7.620;2023-04-24T05:22:52;6.53;;;3.80;;
6145;SDS011;3104;50.348;7.620;2023-04-24T05:25:17;4.17;;;3.77;;
6145;SDS011;3104;50.348;7.620;2023-04-24T05:27:43;4.63;;;4.20;;
6145;SDS011;3104;50.348;7.620;2023-04-24T05:30:09;4.00;;;3.70;;
6145;SDS011;3104;50.348;7.620;2023-04-24T05:32:35;4.03;;;3.67;;
6145;SDS011;3104;50.348;7.620;2023-04-24T05:35:01;4.73;;;4.27;;
6145;SDS011;3104;50.348;7.620;2023-04-24T05:37:26;4.57;;;4.17;;
6145;SDS011;3104;50.348;7.620;2023-04-24T05:39:52;4.40;;;4.10;;
6145;SDS011;3104;50.348;7.620;2023-04-24T05:42:18;4.30;;;4.00;;
6145;SDS011;3104;50.348;7.620;2023-04-24T05:44:43;5.77;;;5.20;;
6145;SDS011;3104;50.348;7.620;2023-04-24T05:47:09;5.37;;;4.40;;
6145;SDS011;3104;50.348;7.620;2023-04-24T05:49:34;4.20;;;3.90;;
6145;SDS011;3104;50.348;7.620;2023-04-24T05:52:00;5.73;;;4.40;;
6145;SDS011;3104;50.348;7.620;2023-04-24T05:54:25;4.97;;;3.93;;
6145;SDS011;3104;50.348;7.620;2023-04-24T05:56:51;5.10;;;4.70;;
6145;SDS011;3104;50.348;7.620;2023-04-24T05:59:16;6.00;;;5.37;;
6145;SDS011;3104;50.348;7.620;2023-04-24T06:01:42;4.90;;;4.50;;
6145;SDS011;3104;50.348;7.620;2023-04-24T06:04:08;5.67;;;5.07;;
6145;SDS011;3104;50.348;7.620;2023-04-24T06:06:34;5.63;;;4.97;;
6145;SDS011;3104;50.348;7.620;2023-04-24T06:09:00;6.00;;;5.30;;
6145;SDS011;3104;50.348;7.620;2023-04-24T06:11:25;5.83;;;5.20;;
6145;SDS011;3104;50.348;7.620;2023-04-24T06:13:51;6.20;;;5.50;;
6145;SDS011;3104;50.348;7.620;2023-04-24T06:16:17;5.30;;;4.87;;
6145;SDS011;3104;50.348;7.620;2023-04-24T06:18:42;6.23;;;5.53;;
6145;SDS011;3104;50.348;7.620;2023-04-24T06:21:08;6.23;;;5.23;;
6145;SDS011;3104;50.348;7.620;2023-04-24T06:23:33;7.23;;;5.60;;
6145;SDS011;3104;50.348;7.620;2023-04-24T06:25:59;5.60;;;4.50;;
6145;SDS011;3104;50.348;7.620;2023-04-24T06:28:25;5.30;;;4.80;;
6145;SDS011;3104;50.348;7.620;2023-04-24T06:30:50;6.20;;;5.70;;
6145;SDS011;3104;50.348;7.620;2023-04-24T06:33:16;5.37;;;4.87;;
6145;SDS011;3104;50.348;7.620;2023-04-24T06:35:41;5.80;;;5.30;;
6145;SDS011;3104;50.348;7.620;2023-04-24T06:38:07;6.37;;;5.77;;
6145;SDS011;3104;50.348;7.620;2023-04-24T06:40:33;7.10;;;5.40;;
6145;SDS011;3104;50.348;7.620;2023-04-24T06:42:58;5.63;;;5.03;;
6145;SDS011;3104;50.348;7.620;2023-04-24T06:45:25;5.27;;;4.77;;
6145;SDS011;3104;50.348;7.620;2023-04-24T06:47:51;6.50;;;5.03;;
6145;SDS011;3104;50.348;7.620;2023-04-24T06:50:16;6.47;;;5.40;;
6145;SDS011;3104;50.348;7.620;2023-04-24T06:52:42;5.43;;;5.03;;
6145;SDS011;3104;50.348;7.620;2023-04-24T06:55:08;4.90;;;4.40;;
6145;SDS011;3104;50.348;7.620;2023-04-24T06:57:33;4.60;;;4.20;;
6145;SDS011;3104;50.348;7.620;2023-04-24T06:59:59;6.30;;;5.70;;
6145;SDS011;3104;50.348;7.620;2023-04-24T07:02:25;4.40;;;4.10;;
6145;SDS011;3104;50.348;7.620;2023-04-24T07:04:50;5.93;;;5.33;;
6145;SDS011;3104;50.348;7.620;2023-04-24T07:07:17;5.27;;;4.77;;
6145;SDS011;3104;50.348;7.620;2023-04-24T07:09:43;7.70;;;4.03;;
6145;SDS011;3104;50.348;7.620;2023-04-24T07:12:10;4.90;;;4.30;;
6145;SDS011;3104;50.348;7.620;2023-04-24T07:14:36;4.63;;;4.03;;
6145;SDS011;3104;50.348;7.620;2023-04-24T07:17:03;5.77;;;4.20;;
6145;SDS011;3104;50.348;7.620;2023-04-24T07:19:29;4.47;;;3.80;;
6145;SDS011;3104;50.348;7.620;2023-04-24T07:21:54;4.63;;;4.23;;
6145;SDS011;3104;50.348;7.620;2023-04-24T07:24:20;4.00;;;3.70;;
6145;SDS011;3104;50.348;7.620;2023-04-24T07:26:46;5.37;;;3.13;;
6145;SDS011;3104;50.348;7.620;2023-04-24T07:29:11;4.83;;;4.40;;
6145;SDS011;3104;50.348;7.620;2023-04-24T07:31:38;3.90;;;3.60;;
6145;SDS011;3104;50.348;7.620;2023-04-24T07:34:05;4.33;;;3.93;;
6145;SDS011;3104;50.348;7.620;2023-04-24T07:36:31;7.03;;;4.00;;
6145;SDS011;3104;50.348;7.620;2023-04-24T07:38:57;4.57;;;3.93;;
6145;SDS011;3104;50.348;7.620;2023-04-24T07:41:23;4.17;;;3.87;;
6145;SDS011;3104;50.348;7.620;2023-04-24T07:43:49;3.90;;;3.50;;
6145;SDS011;3104;50.348;7.620;2023-04-24T07:46:14;4.17;;;3.87;;
6145;SDS011;3104;50.348;7.620;2023-04-24T07:48:40;3.50;;;3.20;;
6145;SDS011;3104;50.348;7.620;2023-04-24T07:51:06;3.60;;;3.30;;
6145;SDS011;3104;50.348;7.620;2023-04-24T07:53:31;4.80;;;3.40;;
6145;SDS011;3104;50.348;7.620;2023-04-24T07:55:57;3.93;;;3.63;;
6145;SDS011;3104;50.348;7.620;2023-04-24T07:58:22;3.50;;;3.20;;
6145;SDS011;3104;50.348;7.620;2023-04-24T08:00:48;3.27;;;2.97;;
6145;SDS011;3104;50.348;7.620;2023-04-24T08:03:14;3.00;;;2.80;;
6145;SDS011;3104;50.348;7.620;2023-04-24T08:05:43;3.00;;;2.80;;
6145;SDS011;3104;50.348;7.620;2023-04-24T08:08:08;3.20;;;2.70;;
6145;SDS011;3104;50.348;7.620;2023-04-24T08:10:34;2.67;;;2.47;;
6145;SDS011;3104;50.348;7.620;2023-04-24T08:13:00;3.30;;;3.00;;
6145;SDS011;3104;50.348;7.620;2023-04-24T08:15:26;2.70;;;2.50;;
6145;SDS011;3104;50.348;7.620;2023-04-24T08:17:52;2.80;;;2.50;;
6145;SDS011;3104;50.348;7.620;2023-04-24T08:20:18;3.30;;;3.00;;
6145;SDS011;3104;50.348;7.620;2023-04-24T08:22:43;2.67;;;2.47;;
6145;SDS011;3104;50.348;7.620;2023-04-24T08:25:12;2.87;;;2.67;;
6145;SDS011;3104;50.348;7.620;2023-04-24T08:27:37;2.43;;;2.23;;
6145;SDS011;3104;50.348;7.620;2023-04-24T08:30:04;2.43;;;2.23;;
6145;SDS011;3104;50.348;7.620;2023-04-24T08:32:30;3.70;;;3.30;;
6145;SDS011;3104;50.348;7.620;2023-04-24T08:34:56;2.70;;;2.50;;
6145;SDS011;3104;50.348;7.620;2023-04-24T08:37:23;2.50;;;2.30;;
6145;SDS011;3104;50.348;7.620;2023-04-24T08:39:49;2.27;;;2.10;;
6145;SDS011;3104;50.348;7.620;2023-04-24T08:42:15;2.50;;;2.30;;
6145;SDS011;3104;50.348;7.620;2023-04-24T08:44:42;2.80;;;2.60;;
6145;SDS011;3104;50.348;7.620;2023-04-24T08:47:09;2.43;;;2.23;;
6145;SDS011;3104;50.348;7.620;2023-04-24T08:49:36;3.20;;;2.90;;
6145;SDS011;3104;50.348;7.620;2023-04-24T08:52:02;3.07;;;2.23;;
6145;SDS011;3104;50.348;7.620;2023-04-24T08:54:28;2.20;;;2.10;;
6145;SDS011;3104;50.348;7.620;2023-04-24T08:56:56;2.77;;;2.57;;
6145;SDS011;3104;50.348;7.620;2023-04-24T08:59:26;2.67;;;2.10;;
6145;SDS011;3104;50.348;7.620;2023-04-24T09:01:52;2.90;;;2.70;;
6145;SDS011;3104;50.348;7.620;2023-04-24T09:04:19;2.80;;;2.40;;
6145;SDS011;3104;50.348;7.620;2023-04-24T09:06:47;2.70;;;2.50;;
6145;SDS011;3104;50.348;7.620;2023-04-24T09:09:13;2.70;;;2.00;;
6145;SDS011;3104;50.348;7.620;2023-04-24T09:11:41;2.43;;;2.23;;
6145;SDS011;3104;50.348;7.620;2023-04-24T09:14:07;1.70;;;1.60;;
6145;SDS011;3104;50.348;7.620;2023-04-24T09:16:34;1.97;;;1.83;;
6145;SDS011;3104;50.348;7.620;2023-04-24T09:19:00;1.70;;;1.60;;
6145;SDS011;3104;50.348;7.620;2023-04-24T09:21:30;1.50;;;1.40;;
6145;SDS011;3104;50.348;7.620;2023-04-24T09:24:04;1.77;;;1.67;;
6145;SDS011;3104;50.348;7.620;2023-04-24T09:26:31;1.60;;;1.50;;
6145;SDS011;3104;50.348;7.620;2023-04-24T09:28:59;2.20;;;2.10;;
6145;SDS011;3104;50.348;7.620;2023-04-24T09:31:26;3.80;;;1.90;;
6145;SDS011;3104;50.348;7.620;2023-04-24T09:33:57;2.10;;;1.90;;
6145;SDS011;3104;50.348;7.620;2023-04-24T09:38:58;4.50;;;2.43;;
6145;SDS011;3104;50.348;7.620;2023-04-24T09:41:25;2.13;;;2.03;;
6145;SDS011;3104;50.348;7.620;2023-04-24T09:43:53;1.83;;;1.73;;
6145;SDS011;3104;50.348;7.620;2023-04-24T09:46:20;2.10;;;2.00;;
6145;SDS011;3104;50.348;7.620;2023-04-24T09:48:47;2.70;;;2.30;;
6145;SDS011;3104;50.348;7.620;2023-04-24T09:51:13;2.27;;;2.10;;
6145;SDS011;3104;50.348;7.620;2023-04-24T09:53:44;2.30;;;2.10;;
6145;SDS011;3104;50.348;7.620;2023-04-24T09:56:11;2.90;;;2.70;;
6145;SDS011;3104;50.348;7.620;2023-04-24T09:58:38;3.50;;;1.90;;
6145;SDS011;3104;50.348;7.620;2023-04-24T10:01:04;2.90;;;2.70;;
6145;SDS011;3104;50.348;7.620;2023-04-24T10:03:30;2.57;;;2.37;;
6145;SDS011;3104;50.348;7.620;2023-04-24T10:06:00;2.70;;;2.50;;
6145;SDS011;3104;50.348;7.620;2023-04-24T10:08:32;2.90;;;2.70;;
6145;SDS011;3104;50.348;7.620;2023-04-24T10:10:59;5.07;;;2.93;;
6145;SDS011;3104;50.348;7.620;2023-04-24T10:13:25;4.07;;;3.77;;
6145;SDS011;3104;50.348;7.620;2023-04-24T10:15:50;3.23;;;2.77;;
6145;SDS011;3104;50.348;7.620;2023-04-24T10:18:16;2.50;;;2.10;;
6145;SDS011;3104;50.348;7.620;2023-04-24T10:20:42;1.80;;;1.70;;
6145;SDS011;3104;50.348;7.620;2023-04-24T10:23:08;1.50;;;1.40;;
6145;SDS011;3104;50.348;7.620;2023-04-24T10:25:35;2.00;;;1.90;;
6145;SDS011;3104;50.348;7.620;2023-04-24T10:28:02;2.67;;;1.70;;
6145;SDS011;3104;50.348;7.620;2023-04-24T10:30:29;1.63;;;1.53;;
6145;SDS011;3104;50.348;7.620;2023-04-24T10:33:00;3.50;;;1.87;;
6145;SDS011;3104;50.348;7.620;2023-04-24T10:35:33;1.77;;;1.67;;
6145;SDS011;3104;50.348;7.620;2023-04-24T10:38:06;2.83;;;1.60;;
6145;SDS011;3104;50.348;7.620;2023-04-24T10:40:36;2.37;;;2.17;;
6145;SDS011;3104;50.348;7.620;2023-04-24T10:43:02;2.40;;;2.30;;
6145;SDS011;3104;50.348;7.620;2023-04-24T10:45:36;2.17;;;2.03;;
6145;SDS011;3104;50.348;7.620;2023-04-24T10:48:04;4.23;;;2.10;;
6145;SDS011;3104;50.348;7.620;2023-04-24T10:50:51;4.80;;;2.60;;
6145;SDS011;3104;50.348;7.620;2023-04-24T10:53:19;2.70;;;2.50;;
6145;SDS011;3104;50.348;7.620;2023-04-24T10:58:23;3.00;;;2.80;;
6145;SDS011;3104;50.348;7.620;2023-04-24T11:00:59;3.93;;;3.63;;
6145;SDS011;3104;50.348;7.620;2023-04-24T11:03:34;4.00;;;3.70;;
6145;SDS011;3104;50.348;7.620;2023-04-24T11:06:05;3.83;;;3.37;;
6145;SDS011;3104;50.348;7.620;2023-04-24T11:08:44;4.80;;;4.30;;
6145;SDS011;3104;50.348;7.620;2023-04-24T11:11:11;4.33;;;3.83;;
6145;SDS011;3104;50.348;7.620;2023-04-24T11:19:10;5.17;;;4.07;;
6145;SDS011;3104;50.348;7.620;2023-04-24T11:32:39;4.33;;;4.03;;
6145;SDS011;3104;50.348;7.620;2023-04-24T11:35:10;4.70;;;4.40;;
6145;SDS011;3104;50.348;7.620;2023-04-24T11:37:49;5.67;;;4.53;;
6145;SDS011;3104;50.348;7.620;2023-04-24T11:40:17;6.30;;;4.97;;
6145;SDS011;3104;50.348;7.620;2023-04-24T11:42:51;5.30;;;4.80;;
6145;SDS011;3104;50.348;7.620;2023-04-24T11:45:18;6.43;;;5.83;;
6145;SDS011;3104;50.348;7.620;2023-04-24T11:47:47;6.10;;;5.40;;
6145;SDS011;3104;50.348;7.620;2023-04-24T11:50:16;5.97;;;5.37;;
6145;SDS011;3104;50.348;7.620;2023-04-24T11:52:44;7.13;;;4.90;;
6145;SDS011;3104;50.348;7.620;2023-04-24T11:57:41;4.43;;;4.03;;
6145;SDS011;3104;50.348;7.620;2023-04-24T12:00:14;7.57;;;5.00;;
6145;SDS011;3104;50.348;7.620;2023-04-24T12:02:48;7.07;;;5.80;;
6145;SDS011;3104;50.348;7.620;2023-04-24T12:05:25;5.80;;;3.97;;
6145;SDS011;3104;50.348;7.620;2023-04-24T12:07:52;4.20;;;3.87;;
6145;SDS011;3104;50.348;7.620;2023-04-24T12:10:21;4.27;;;3.87;;
6145;SDS011;3104;50.348;7.620;2023-04-24T12:12:51;4.93;;;4.00;;
6145;SDS011;3104;50.348;7.620;2023-04-24T12:15:18;5.27;;;4.10;;
6145;SDS011;3104;50.348;7.620;2023-04-24T12:17:45;6.07;;;5.20;;
6145;SDS011;3104;50.348;7.620;2023-04-24T12:20:11;5.00;;;4.60;;
6145;SDS011;3104;50.348;7.620;2023-04-24T12:25:15;4.87;;;4.37;;
6145;SDS011;3104;50.348;7.620;2023-04-24T12:27:41;5.90;;;4.50;;
6145;SDS011;3104;50.348;7.620;2023-04-24T12:30:12;5.80;;;5.30;;
6145;SDS011;3104;50.348;7.620;2023-04-24T12:32:42;10.50;;;4.83;;
6145;SDS011;3104;50.348;7.620;2023-04-24T12:35:10;5.37;;;4.87;;
6145;SDS011;3104;50.348;7.620;2023-04-24T12:37:35;4.70;;;4.33;;
6145;SDS011;3104;50.348;7.620;2023-04-24T12:40:10;5.20;;;4.80;;
6145;SDS011;3104;50.348;7.620;2023-04-24T12:45:08;4.90;;;4.50;;
6145;SDS011;3104;50.348;7.620;2023-04-24T12:47:34;11.90;;;4.90;;
6145;SDS011;3104;50.348;7.620;2023-04-24T12:50:01;5.53;;;5.03;;
6145;SDS011;3104;50.348;7.620;2023-04-24T12:52:27;6.33;;;4.70;;
6145;SDS011;3104;50.348;7.620;2023-04-24T12:54:54;5.93;;;5.40;;
6145;SDS011;3104;50.348;7.620;2023-04-24T12:57:26;8.40;;;4.70;;
6145;SDS011;3104;50.348;7.620;2023-04-24T12:59:56;6.30;;;4.77;;
6145;SDS011;3104;50.348;7.620;2023-04-24T13:02:23;4.97;;;4.53;;
6145;SDS011;3104;50.348;7.620;2023-04-24T13:04:58;8.70;;;5.43;;
6145;SDS011;3104;50.348;7.620;2023-04-24T13:07:24;6.90;;;4.63;;
6145;SDS011;3104;50.348;7.620;2023-04-24T13:09:50;5.73;;;4.40;;
6145;SDS011;3104;50.348;7.620;2023-04-24T13:12:16;6.43;;;5.50;;
6145;SDS011;3104;50.348;7.620;2023-04-24T13:14:42;6.17;;;4.97;;
6145;SDS011;3104;50.348;7.620;2023-04-24T13:17:08;5.63;;;5.03;;
6145;SDS011;3104;50.348;7.620;2023-04-24T13:19:37;5.53;;;4.90;;
6145;SDS011;3104;50.348;7.620;2023-04-24T13:22:08;6.13;;;4.70;;
6145;SDS011;3104;50.348;7.620;2023-04-24T13:24:35;5.77;;;5.27;;
6145;SDS011;3104;50.348;7.620;2023-04-24T13:27:01;6.43;;;3.80;;
6145;SDS011;3104;50.348;7.620;2023-04-24T13:29:27;4.80;;;4.40;;
6145;SDS011;3104;50.348;7.620;2023-04-24T13:31:53;5.13;;;4.00;;
6145;SDS011;3104;50.348;7.620;2023-04-24T13:34:23;4.00;;;3.60;;
6145;SDS011;3104;50.348;7.620;2023-04-24T13:36:52;4.20;;;3.43;;
6145;SDS011;3104;50.348;7.620;2023-04-24T13:39:18;5.53;;;3.60;;
6145;SDS011;3104;50.348;7.620;2023-04-24T13:41:44;4.03;;;3.60;;
6145;SDS011;3104;50.348;7.620;2023-04-24T13:44:12;4.63;;;4.23;;
6145;SDS011;3104;50.348;7.620;2023-04-24T13:46:37;5.30;;;4.10;;
6145;SDS011;3104;50.348;7.620;2023-04-24T13:49:03;4.77;;;3.40;;
6145;SDS011;3104;50.348;7.620;2023-04-24T13:51:28;3.97;;;3.53;;
6145;SDS011;3104;50.348;7.620;2023-04-24T13:53:55;6.57;;;3.80;;
6145;SDS011;3104;50.348;7.620;2023-04-24T13:56:20;3.67;;;3.37;;
6145;SDS011;3104;50.348;7.620;2023-04-24T13:58:47;6.23;;;3.57;;
6145;SDS011;3104;50.348;7.620;2023-04-24T14:01:13;3.80;;;3.50;;
6145;SDS011;3104;50.348;7.620;2023-04-24T14:03:39;4.70;;;4.30;;
6145;SDS011;3104;50.348;7.620;2023-04-24T14:06:06;4.40;;;4.03;;
6145;SDS011;3104;50.348;7.620;2023-04-24T14:08:32;5.00;;;3.57;;
6145;SDS011;3104;50.348;7.620;2023-04-24T14:10:57;4.93;;;3.63;;
6145;SDS011;3104;50.348;7.620;2023-04-24T14:13:23;7.47;;;4.57;;
6145;SDS011;3104;50.348;7.620;2023-04-24T14:15:49;7.27;;;3.97;;
6145;SDS011;3104;50.348;7.620;2023-04-24T14:18:17;4.43;;;4.00;;
6145;SDS011;3104;50.348;7.620;2023-04-24T14:20:43;4.90;;;4.50;;
6145;SDS011;3104;50.348;7.620;2023-04-24T14:23:09;4.73;;;4.33;;
6145;SDS011;3104;50.348;7.620;2023-04-24T14:25:34;10.40;;;4.33;;
6145;SDS011;3104;50.348;7.620;2023-04-24T14:28:00;4.10;;;3.70;;
6145;SDS011;3104;50.348;7.620;2023-04-24T14:30:26;5.33;;;4.20;;
6145;SDS011;3104;50.348;7.620;2023-04-24T14:32:51;8.57;;;4.70;;
6145;SDS011;3104;50.348;7.620;2023-04-24T14:35:17;4.10;;;3.73;;
6145;SDS011;3104;50.348;7.620;2023-04-24T14:37:42;4.73;;;4.37;;
6145;SDS011;3104;50.348;7.620;2023-04-24T14:40:08;4.67;;;4.23;;
6145;SDS011;3104;50.348;7.620;2023-04-24T14:42:34;4.57;;;4.17;;
6145;SDS011;3104;50.348;7.620;2023-04-24T14:45:00;5.30;;;4.43;;
6145;SDS011;3104;50.348;7.620;2023-04-24T14:47:26;4.70;;;4.20;;
6145;SDS011;3104;50.348;7.620;2023-04-24T14:49:51;5.40;;;4.60;;
6145;SDS011;3104;50.348;7.620;2023-04-24T14:52:17;4.80;;;4.40;;
6145;SDS011;3104;50.348;7.620;2023-04-24T14:54:43;5.10;;;4.70;;
6145;SDS011;3104;50.348;7.620;2023-04-24T14:57:08;6.03;;;5.43;;
6145;SDS011;3104;50.348;7.620;2023-04-24T14:59:35;5.90;;;5.30;;
6145;SDS011;3104;50.348;7.620;2023-04-24T15:02:00;5.43;;;4.80;;
6145;SDS011;3104;50.348;7.620;2023-04-24T15:04:26;6.07;;;5.00;;
6145;SDS011;3104;50.348;7.620;2023-04-24T15:06:53;6.07;;;4.47;;
6145;SDS011;3104;50.348;7.620;2023-04-24T15:09:20;6.57;;;5.13;;
6145;SDS011;3104;50.348;7.620;2023-04-24T15:11:47;5.70;;;5.10;;
6145;SDS011;3104;50.348;7.620;2023-04-24T15:14:12;4.60;;;4.13;;
6145;SDS011;3104;50.348;7.620;2023-04-24T15:16:38;5.03;;;4.60;;
6145;SDS011;3104;50.348;7.620;2023-04-24T15:19:04;4.47;;;4.17;;
6145;SDS011;3104;50.348;7.620;2023-04-24T15:21:29;5.33;;;4.80;;
6145;SDS011;3104;50.348;7.620;2023-04-24T15:23:56;5.43;;;4.77;;
6145;SDS011;3104;50.348;7.620;2023-04-24T15:26:22;7.40;;;4.93;;
6145;SDS011;3104;50.348;7.620;2023-04-24T15:28:48;6.17;;;5.57;;
6145;SDS011;3104;50.348;7.620;2023-04-24T15:31:14;6.47;;;5.53;;
6145;SDS011;3104;50.348;7.620;2023-04-24T15:33:40;7.73;;;6.20;;
6145;SDS011;3104;50.348;7.620;2023-04-24T15:36:05;7.70;;;5.70;;
6145;SDS011;3104;50.348;7.620;2023-04-24T15:38:31;7.07;;;6.13;;
6145;SDS011;3104;50.348;7.620;2023-04-24T15:40:57;6.87;;;6.27;;